createdAt,value
2018-03-18T00:00:35.327Z,21.30
2018-03-18T00:03:03.824Z,20.98
2018-03-18T00:05:33.166Z,22.17
2018-03-18T00:08:01.472Z,22.00
2018-03-18T00:10:30.593Z,23.52
2018-03-18T00:12:59.807Z,23.90
2018-03-18T00:15:29.145Z,24.00
2018-03-18T00:17:57.524Z,26.98
2018-03-18T00:20:26.663Z,23.42
2018-03-18T00:22:55.819Z,24.98
2018-03-18T00:25:24.285Z,28.33
2018-03-18T00:27:52.567Z,23.05
2018-03-18T00:30:20.847Z,22.10
2018-03-18T00:32:49.322Z,28.05
2018-03-18T00:35:17.713Z,26.27
2018-03-18T00:37:45.980Z,25.98
2018-03-18T00:40:17.944Z,27.90
2018-03-18T00:42:46.206Z,29.20
2018-03-18T00:45:14.800Z,22.83
2018-03-18T00:47:43.074Z,24.45
2018-03-18T00:50:11.530Z,28.27
2018-03-18T00:52:39.842Z,25.50
2018-03-18T00:55:08.152Z,27.73
2018-03-18T00:57:36.442Z,25.00
2018-03-18T01:00:04.837Z,22.30
2018-03-18T01:02:33.123Z,27.10
2018-03-18T01:05:01.411Z,25.30
2018-03-18T01:07:29.767Z,25.95
2018-03-18T01:09:58.069Z,26.77
2018-03-18T01:12:26.343Z,27.85
2018-03-18T01:14:54.635Z,24.10
2018-03-18T01:17:23.675Z,23.73
2018-03-18T01:19:51.965Z,20.95
2018-03-18T01:22:20.292Z,27.33
2018-03-18T01:24:49.321Z,22.58
2018-03-18T01:27:17.606Z,23.75
2018-03-18T01:29:45.881Z,26.05
2018-03-18T01:32:14.168Z,23.30
2018-03-18T01:34:42.461Z,26.12
2018-03-18T01:37:10.763Z,25.62
2018-03-18T01:39:39.858Z,24.50
2018-03-18T01:42:08.912Z,26.67
2018-03-18T01:44:37.212Z,26.50
2018-03-18T01:47:05.479Z,24.48
2018-03-18T01:49:33.852Z,24.87
2018-03-18T01:52:02.115Z,22.40
2018-03-18T01:54:30.424Z,25.90
2018-03-18T01:56:59.465Z,22.73
2018-03-18T01:59:27.767Z,20.60
2018-03-18T02:01:56.816Z,25.55
2018-03-18T02:04:25.146Z,21.98
2018-03-18T02:06:53.435Z,22.75
2018-03-18T02:09:22.498Z,20.15
2018-03-18T02:11:50.819Z,23.58
2018-03-18T02:14:19.841Z,24.98
2018-03-18T02:16:48.213Z,21.30
2018-03-18T02:19:16.599Z,19.98
2018-03-18T02:21:44.941Z,23.30
2018-03-18T02:24:13.998Z,22.48
2018-03-18T02:26:42.284Z,21.75
2018-03-18T02:29:10.523Z,24.50
2018-03-18T02:31:38.813Z,24.35
2018-03-18T02:34:07.171Z,22.73
2018-03-18T02:36:35.487Z,19.55
2018-03-18T02:39:03.793Z,23.30
2018-03-18T02:41:32.066Z,22.02
2018-03-18T02:44:00.468Z,25.37
2018-03-18T02:46:28.755Z,21.58
2018-03-18T02:48:57.027Z,24.27
2018-03-18T02:51:25.322Z,24.87
2018-03-18T02:53:53.623Z,21.77
2018-03-18T02:56:21.882Z,20.30
2018-03-18T02:58:50.194Z,23.48
2018-03-18T03:01:18.480Z,16.77
2018-03-18T03:03:46.832Z,22.73
2018-03-18T03:06:15.879Z,19.15
2018-03-18T03:08:44.305Z,24.67
2018-03-18T03:11:12.583Z,20.70
2018-03-18T03:13:41.649Z,22.10
2018-03-18T03:16:09.937Z,20.45
2018-03-18T03:18:38.217Z,19.00
2018-03-18T03:21:06.518Z,20.77
2018-03-18T03:23:35.634Z,19.20
2018-03-18T03:26:03.913Z,18.12
2018-03-18T03:28:32.392Z,18.48
2018-03-18T03:31:00.700Z,18.50
2018-03-18T03:33:29.030Z,25.02
2018-03-18T03:35:57.326Z,20.27
2018-03-18T03:38:25.594Z,25.55
2018-03-18T03:40:54.010Z,20.00
2018-03-18T03:43:22.296Z,19.70
2018-03-18T03:45:50.562Z,19.80
2018-03-18T03:48:18.841Z,21.17
2018-03-18T03:50:47.130Z,21.65
2018-03-18T03:53:16.249Z,19.33
2018-03-18T03:55:45.271Z,22.35
2018-03-18T03:58:13.547Z,15.98
2018-03-18T04:00:41.852Z,18.90
2018-03-18T04:03:10.145Z,18.20
2018-03-18T04:05:39.198Z,14.23
2018-03-18T04:08:07.463Z,16.85
2018-03-18T04:10:35.729Z,18.58
2018-03-18T04:13:04.004Z,20.15
2018-03-18T04:15:32.299Z,14.80
2018-03-18T04:18:00.580Z,16.20
2018-03-18T04:20:29.727Z,21.50
2018-03-18T04:22:58.024Z,16.33
2018-03-18T04:25:26.284Z,22.23
2018-03-18T04:27:54.722Z,13.95
2018-03-18T04:30:23.833Z,16.70
2018-03-18T04:32:52.141Z,17.33
2018-03-18T04:35:20.411Z,17.85
2018-03-18T04:37:48.679Z,17.12
2018-03-18T04:40:17.031Z,16.37
2018-03-18T04:42:46.056Z,15.35
2018-03-18T04:45:14.354Z,21.00
2018-03-18T04:47:42.619Z,18.02
2018-03-18T04:50:10.949Z,17.15
2018-03-18T04:52:40.004Z,17.12
2018-03-18T04:55:08.267Z,18.67
2018-03-18T04:57:36.538Z,15.82
2018-03-18T05:00:04.831Z,19.02
2018-03-18T05:02:33.090Z,17.60
2018-03-18T05:05:01.409Z,18.62
2018-03-18T05:07:29.712Z,18.45
2018-03-18T05:09:58.802Z,15.48
2018-03-18T05:12:27.679Z,14.23
2018-03-18T05:14:56.026Z,20.27
2018-03-18T05:17:24.306Z,17.60
2018-03-18T05:19:52.583Z,15.50
2018-03-18T05:22:22.160Z,17.67
2018-03-18T05:24:50.482Z,17.00
2018-03-18T05:27:19.605Z,19.35
2018-03-18T05:29:47.830Z,16.98
2018-03-18T05:32:16.096Z,18.30
2018-03-18T05:34:44.391Z,17.58
2018-03-18T05:37:12.818Z,14.75
2018-03-18T05:39:41.131Z,17.10
2018-03-18T05:42:09.525Z,16.98
2018-03-18T05:44:37.785Z,16.50
2018-03-18T05:47:06.124Z,16.77
2018-03-18T05:49:34.499Z,18.08
2018-03-18T05:52:02.858Z,17.35
2018-03-18T05:54:31.175Z,20.92
2018-03-18T05:56:59.452Z,17.67
2018-03-18T05:59:27.729Z,16.77
2018-03-18T06:01:55.996Z,20.27
2018-03-18T06:04:24.290Z,18.20
2018-03-18T06:06:53.231Z,16.20
2018-03-18T06:09:22.303Z,16.48
2018-03-18T06:11:51.419Z,16.02
2018-03-18T06:14:19.733Z,14.13
2018-03-18T06:16:48.019Z,18.00
2018-03-18T06:19:16.363Z,16.48
2018-03-18T06:21:44.641Z,15.73
2018-03-18T06:24:12.954Z,21.77
2018-03-18T06:26:41.225Z,16.87
2018-03-18T06:29:09.829Z,14.57
2018-03-18T06:31:39.075Z,16.92
2018-03-18T06:34:07.413Z,18.02
2018-03-18T06:36:36.477Z,18.12
2018-03-18T06:39:04.768Z,22.45
2018-03-18T06:41:33.170Z,14.15
2018-03-18T06:44:02.245Z,19.50
2018-03-18T06:46:31.935Z,15.40
2018-03-18T06:49:00.223Z,13.82
2018-03-18T06:51:29.260Z,16.30
2018-03-18T06:53:57.559Z,15.45
2018-03-18T06:56:25.849Z,15.68
2018-03-18T06:58:54.480Z,15.90
2018-03-18T07:01:23.552Z,15.82
2018-03-18T07:03:52.631Z,13.50
2018-03-18T07:06:21.711Z,18.05
2018-03-18T07:08:50.113Z,16.85
2018-03-18T07:11:19.140Z,16.98
2018-03-18T07:13:47.443Z,22.02
2018-03-18T07:16:15.978Z,16.95
2018-03-18T07:18:45.031Z,14.70
2018-03-18T07:21:13.389Z,18.40
2018-03-18T07:23:41.662Z,18.48
2018-03-18T07:26:10.013Z,16.33
2018-03-18T07:28:38.287Z,18.15
2018-03-18T07:31:07.289Z,17.98
2018-03-18T07:33:36.536Z,19.08
2018-03-18T07:36:04.836Z,17.40
2018-03-18T07:38:33.872Z,17.52
2018-03-18T07:41:02.152Z,14.35
2018-03-18T07:43:30.551Z,15.45
2018-03-18T07:45:58.993Z,16.33
2018-03-18T07:48:27.299Z,14.57
2018-03-18T07:50:55.592Z,13.05
2018-03-18T07:53:24.652Z,17.02
2018-03-18T07:55:53.377Z,20.62
2018-03-18T07:58:22.448Z,12.50
2018-03-18T08:00:50.921Z,18.27
2018-03-18T08:03:19.235Z,13.00
2018-03-18T08:05:48.373Z,13.93
2018-03-18T08:08:17.152Z,17.87
2018-03-18T08:10:45.439Z,14.68
2018-03-18T08:13:13.730Z,15.32
2018-03-18T08:15:42.044Z,14.23
2018-03-18T08:18:11.110Z,12.73
2018-03-18T08:20:39.462Z,13.02
2018-03-18T08:23:07.760Z,16.65
2018-03-18T08:25:36.147Z,14.68
2018-03-18T08:28:04.652Z,16.17
2018-03-18T08:30:32.959Z,14.85
2018-03-18T08:33:01.259Z,13.55
2018-03-18T08:35:29.597Z,8.90
2018-03-18T08:37:57.867Z,20.50
2018-03-18T08:40:26.294Z,13.35
2018-03-18T08:42:54.547Z,15.43
2018-03-18T08:45:22.870Z,13.07
2018-03-18T08:47:51.937Z,11.30
2018-03-18T08:50:20.404Z,18.62
2018-03-18T08:52:48.731Z,14.60
2018-03-18T08:55:17.792Z,13.50
2018-03-18T08:57:46.195Z,12.25
2018-03-18T09:00:14.444Z,13.02
2018-03-18T09:02:42.716Z,13.23
2018-03-18T09:05:11.129Z,17.35
2018-03-18T09:07:40.188Z,15.88
2018-03-18T09:10:08.460Z,13.60
2018-03-18T09:12:36.738Z,15.40
2018-03-18T09:15:05.031Z,14.15
2018-03-18T09:17:34.074Z,15.10
2018-03-18T09:20:02.371Z,14.35
2018-03-18T09:22:30.647Z,12.85
2018-03-18T09:24:58.953Z,14.20
2018-03-18T09:27:28.086Z,14.07
2018-03-18T09:29:56.495Z,10.60
2018-03-18T09:32:24.847Z,17.62
2018-03-18T09:34:53.944Z,10.07
2018-03-18T09:37:22.215Z,10.73
2018-03-18T09:39:50.496Z,15.88
2018-03-18T09:42:18.857Z,11.63
2018-03-18T09:44:47.185Z,14.05
2018-03-18T09:47:15.481Z,9.80
2018-03-18T09:49:44.514Z,11.25
2018-03-18T09:52:12.937Z,15.05
2018-03-18T09:54:42.142Z,14.23
2018-03-18T09:57:10.400Z,16.05
2018-03-18T09:59:38.717Z,16.73
2018-03-18T10:02:07.172Z,13.90
2018-03-18T10:04:36.365Z,12.15
2018-03-18T10:07:04.824Z,11.32
2018-03-18T10:09:33.268Z,12.82
2018-03-18T10:12:01.661Z,11.63
2018-03-18T10:14:29.953Z,13.32
2018-03-18T10:16:58.304Z,16.12
2018-03-18T10:19:26.639Z,11.90
2018-03-18T10:21:56.047Z,13.85
2018-03-18T10:24:25.078Z,13.88
2018-03-18T10:26:53.388Z,12.23
2018-03-18T10:29:23.143Z,14.87
2018-03-18T10:31:51.419Z,10.63
2018-03-18T10:34:19.793Z,15.23
2018-03-18T10:36:47.981Z,13.32
2018-03-18T10:39:16.254Z,12.15
2018-03-18T10:41:44.602Z,12.63
2018-03-18T10:44:13.631Z,14.80
2018-03-18T10:46:41.935Z,12.95
2018-03-18T10:49:10.200Z,15.27
2018-03-18T10:51:38.490Z,14.48
2018-03-18T10:54:06.770Z,11.18
2018-03-18T10:56:35.073Z,14.23
2018-03-18T10:59:04.129Z,13.62
2018-03-18T11:01:49.310Z,15.30
2018-03-18T11:04:17.728Z,8.32
2018-03-18T11:06:46.950Z,13.70
2018-03-18T11:09:15.229Z,12.07
2018-03-18T11:11:43.492Z,16.85
2018-03-18T11:14:11.933Z,14.43
2018-03-18T11:16:40.261Z,11.43
2018-03-18T11:19:08.626Z,12.77
2018-03-18T11:21:36.930Z,11.38
2018-03-18T11:24:06.013Z,12.15
2018-03-18T11:26:34.313Z,12.75
2018-03-18T11:29:02.564Z,13.82
2018-03-18T11:31:30.893Z,12.43
2018-03-18T11:34:00.012Z,15.15
2018-03-18T11:36:28.294Z,17.00
2018-03-18T11:38:56.671Z,11.05
2018-03-18T11:41:25.051Z,16.42
2018-03-18T11:43:53.317Z,14.85
2018-03-18T11:46:21.612Z,9.88
2018-03-18T11:48:49.877Z,12.13
2018-03-18T11:51:18.219Z,10.95
2018-03-18T11:53:47.273Z,14.50
2018-03-18T11:56:15.592Z,15.38
2018-03-18T11:58:44.684Z,13.25
2018-03-18T12:01:13.831Z,13.43
2018-03-18T12:03:42.099Z,19.92
2018-03-18T12:06:10.384Z,12.65
2018-03-18T12:08:56.502Z,12.80
2018-03-18T12:11:24.782Z,11.95
2018-03-18T12:13:53.082Z,11.43
2018-03-18T12:16:21.358Z,11.85
2018-03-18T12:18:49.863Z,11.12
2018-03-18T12:21:18.157Z,11.12
2018-03-18T12:23:46.477Z,11.52
2018-03-18T12:26:15.579Z,12.25
2018-03-18T12:28:43.832Z,13.15
2018-03-18T12:31:12.153Z,13.55
2018-03-18T12:33:40.467Z,12.05
2018-03-18T12:36:09.546Z,15.68
2018-03-18T12:38:37.878Z,12.55
2018-03-18T12:41:06.199Z,13.80
2018-03-18T12:43:34.475Z,18.92
2018-03-18T12:46:02.763Z,12.77
2018-03-18T12:48:31.092Z,12.85
2018-03-18T12:50:59.403Z,14.93
2018-03-18T12:53:27.709Z,12.65
2018-03-18T12:55:56.742Z,10.98
2018-03-18T12:58:25.376Z,10.02
2018-03-18T13:00:53.662Z,13.35
2018-03-18T13:03:22.288Z,15.20
2018-03-18T13:05:50.582Z,13.55
2018-03-18T13:08:18.995Z,17.45
2018-03-18T13:10:48.049Z,13.98
2018-03-18T13:13:16.337Z,13.98
2018-03-18T13:15:44.634Z,12.40
2018-03-18T13:18:12.940Z,18.20
2018-03-18T13:20:41.324Z,11.77
2018-03-18T13:23:10.163Z,11.52
2018-03-18T13:25:38.459Z,9.43
2018-03-18T13:28:06.740Z,11.77
2018-03-18T13:30:35.043Z,13.82
2018-03-18T13:33:03.288Z,12.77
2018-03-18T13:35:32.387Z,16.00
2018-03-18T13:38:01.417Z,9.63
2018-03-18T13:40:29.724Z,12.43
2018-03-18T13:42:58.117Z,10.55
2018-03-18T13:45:28.006Z,12.95
2018-03-18T13:47:56.383Z,10.88
2018-03-18T13:50:24.721Z,13.62
2018-03-18T13:52:53.067Z,12.43
2018-03-18T13:55:22.165Z,10.82
2018-03-18T13:57:51.194Z,12.15
2018-03-18T14:00:19.458Z,10.07
2018-03-18T14:02:47.804Z,11.05
2018-03-18T14:05:16.064Z,10.70
2018-03-18T14:07:46.039Z,11.32
2018-03-18T14:10:14.335Z,11.80
2018-03-18T14:12:42.576Z,9.70
2018-03-18T14:15:10.882Z,11.43
2018-03-18T14:17:39.173Z,13.25
2018-03-18T14:20:07.511Z,9.13
2018-03-18T14:22:35.723Z,13.18
2018-03-18T14:25:04.004Z,8.40
2018-03-18T14:27:33.093Z,14.55
2018-03-18T14:30:01.370Z,11.18
2018-03-18T14:32:29.720Z,9.48
2018-03-18T14:34:58.085Z,12.00
2018-03-18T14:37:26.419Z,8.93
2018-03-18T14:39:54.655Z,9.95
2018-03-18T14:42:23.092Z,10.15
2018-03-18T14:44:51.400Z,9.88
2018-03-18T14:47:19.841Z,10.82
2018-03-18T14:49:48.932Z,9.43
2018-03-18T14:52:18.929Z,9.10
2018-03-18T14:54:48.033Z,9.80
2018-03-18T14:57:16.604Z,9.85
2018-03-18T14:59:46.548Z,10.23
2018-03-18T15:02:15.734Z,9.02
2018-03-18T15:04:44.832Z,9.65
2018-03-18T15:07:14.168Z,9.95
2018-03-18T15:09:42.495Z,10.32
2018-03-18T15:12:10.883Z,10.20
2018-03-18T15:14:40.011Z,9.60
2018-03-18T15:17:08.619Z,7.82
2018-03-18T15:19:36.966Z,10.30
2018-03-18T15:22:05.559Z,8.45
2018-03-18T15:24:34.008Z,8.43
2018-03-18T15:27:03.347Z,11.02
2018-03-18T15:29:31.967Z,12.43
2018-03-18T15:32:00.566Z,10.60
2018-03-18T15:34:29.137Z,9.52
2018-03-18T15:36:58.696Z,13.68
2018-03-18T15:39:27.179Z,9.48
2018-03-18T15:41:55.587Z,13.05
2018-03-18T15:44:24.696Z,10.45
2018-03-18T15:46:53.940Z,9.32
2018-03-18T15:49:22.241Z,13.18
2018-03-18T15:51:50.574Z,10.68
2018-03-18T15:54:19.024Z,7.93
2018-03-18T15:56:47.579Z,10.45
2018-03-18T15:59:16.134Z,8.75
2018-03-18T16:01:44.646Z,8.45
2018-03-18T16:04:14.095Z,11.38
2018-03-18T16:06:43.571Z,7.68
2018-03-18T16:09:12.270Z,8.70
2018-03-18T16:11:41.329Z,9.75
2018-03-18T16:14:10.627Z,9.98
2018-03-18T16:16:39.195Z,8.30
2018-03-18T16:19:07.731Z,7.28
2018-03-18T16:21:37.204Z,8.77
2018-03-18T16:24:06.046Z,9.93
2018-03-18T16:26:34.464Z,10.18
2018-03-18T16:32:13.250Z,10.90
2018-03-18T16:34:42.047Z,9.02
2018-03-18T16:37:10.535Z,8.38
2018-03-18T16:39:39.078Z,8.50
2018-03-18T16:42:08.731Z,9.70
2018-03-18T16:44:37.140Z,13.62
2018-03-18T16:47:06.928Z,9.13
2018-03-18T16:49:35.620Z,11.90
2018-03-18T16:52:04.381Z,9.63
2018-03-18T16:54:33.082Z,12.35
2018-03-18T16:57:02.928Z,12.80
2018-03-18T16:59:31.308Z,10.38
2018-03-18T17:02:01.192Z,9.18
2018-03-18T17:04:29.583Z,8.82
2018-03-18T17:06:58.160Z,8.60
2018-03-18T17:09:26.714Z,8.40
2018-03-18T17:11:55.052Z,10.57
2018-03-18T17:14:25.322Z,11.63
2018-03-18T17:16:53.939Z,9.80
2018-03-18T17:19:23.215Z,10.38
2018-03-18T17:21:51.834Z,12.50
2018-03-18T17:24:21.479Z,11.60
2018-03-18T17:26:49.910Z,14.23
2018-03-18T17:29:18.274Z,11.15
2018-03-18T17:31:46.763Z,11.95
2018-03-18T17:34:15.210Z,11.60
2018-03-18T17:36:43.549Z,10.60
2018-03-18T17:39:12.226Z,11.48
2018-03-18T17:41:40.573Z,12.00
2018-03-18T17:44:09.782Z,10.80
2018-03-18T17:46:56.431Z,9.23
2018-03-18T17:49:42.750Z,12.85
2018-03-18T17:52:29.909Z,12.70
2018-03-18T17:55:18.895Z,8.77
2018-03-18T17:57:48.724Z,11.10
2018-03-18T18:00:17.282Z,10.73
2018-03-18T18:02:45.891Z,11.70
2018-03-18T18:05:14.425Z,9.18
2018-03-18T18:07:44.028Z,8.68
2018-03-18T18:10:12.754Z,7.28
2018-03-18T18:12:41.112Z,8.57
2018-03-18T18:15:10.029Z,10.05
2018-03-18T18:17:38.706Z,9.88
2018-03-18T18:20:07.014Z,11.45
2018-03-18T18:22:35.690Z,10.07
2018-03-18T18:25:04.016Z,14.85
2018-03-18T18:27:32.776Z,17.58
2018-03-18T18:30:01.972Z,13.23
2018-03-18T18:32:31.789Z,12.68
2018-03-18T18:35:00.231Z,10.38
2018-03-18T18:37:28.999Z,9.77
2018-03-18T18:39:57.322Z,10.30
2018-03-18T18:42:25.825Z,10.70
2018-03-18T18:44:54.893Z,9.70
2018-03-18T18:47:23.459Z,9.75
2018-03-18T18:49:52.367Z,13.98
2018-03-18T18:52:21.151Z,11.07
2018-03-18T18:54:49.514Z,7.00
2018-03-18T18:57:18.533Z,10.90
2018-03-18T18:59:46.948Z,11.32
2018-03-18T19:02:15.520Z,14.50
2018-03-18T19:04:44.754Z,11.38
2018-03-18T19:07:13.944Z,12.63
2018-03-18T19:09:44.069Z,10.57
2018-03-18T19:12:12.596Z,15.55
2018-03-18T19:14:41.360Z,10.70
2018-03-18T19:17:10.435Z,12.60
2018-03-18T19:19:38.949Z,16.95
2018-03-18T19:22:07.488Z,11.98
2018-03-18T19:24:36.385Z,10.15
2018-03-18T19:27:05.287Z,12.70
2018-03-18T19:29:34.573Z,12.02
2018-03-18T19:32:02.874Z,8.45
2018-03-18T19:34:31.483Z,9.43
2018-03-18T19:37:00.256Z,8.45
2018-03-18T19:39:28.694Z,16.23
2018-03-18T19:41:57.305Z,10.73
2018-03-18T19:44:25.783Z,11.50
2018-03-18T19:46:54.789Z,11.00
2018-03-18T19:49:23.692Z,10.85
2018-03-18T19:51:53.314Z,11.55
2018-03-18T19:54:21.920Z,9.80
2018-03-18T19:56:50.917Z,10.98
2018-03-18T19:59:19.740Z,10.57
2018-03-18T20:01:48.317Z,10.05
2018-03-18T20:04:16.928Z,10.45
2018-03-18T20:06:46.326Z,11.88
2018-03-18T20:09:14.682Z,12.27
2018-03-18T20:11:43.465Z,12.43
2018-03-18T20:14:12.221Z,10.23
2018-03-18T20:16:41.146Z,8.88
2018-03-18T20:19:09.907Z,11.55
2018-03-18T20:21:39.564Z,11.93
2018-03-18T20:24:08.529Z,15.10
2018-03-18T20:26:37.095Z,10.43
2018-03-18T20:29:05.436Z,10.07
2018-03-18T20:31:34.247Z,10.27
2018-03-18T20:34:04.076Z,12.82
2018-03-18T20:36:32.768Z,11.27
2018-03-18T20:39:01.534Z,7.97
2018-03-18T20:41:30.078Z,14.25
2018-03-18T20:43:59.033Z,11.32
2018-03-18T20:46:28.432Z,15.68
2018-03-18T20:48:57.018Z,11.55
2018-03-18T20:51:26.665Z,10.85
2018-03-18T20:53:55.153Z,14.32
2018-03-18T20:56:23.657Z,10.50
2018-03-18T20:58:51.955Z,11.95
2018-03-18T21:01:20.287Z,13.05
2018-03-18T21:03:48.564Z,10.48
2018-03-18T21:06:17.155Z,13.50
2018-03-18T21:08:45.885Z,12.73
2018-03-18T21:11:15.016Z,9.73
2018-03-18T21:13:43.318Z,10.00
2018-03-18T21:16:11.659Z,15.35
2018-03-18T21:18:40.827Z,13.73
2018-03-18T21:21:09.851Z,11.93
2018-03-18T21:23:38.347Z,10.40
2018-03-18T21:26:06.716Z,10.90
2018-03-18T21:28:35.053Z,9.73
2018-03-18T21:31:03.310Z,10.10
2018-03-18T21:33:31.587Z,12.88
2018-03-18T21:35:59.929Z,12.80
2018-03-18T21:38:28.287Z,12.68
2018-03-18T21:40:56.659Z,12.85
2018-03-18T21:43:25.804Z,10.85
2018-03-18T21:45:54.080Z,10.70
2018-03-18T21:48:22.770Z,11.85
2018-03-18T21:50:51.063Z,13.98
2018-03-18T21:53:20.148Z,15.52
2018-03-18T21:55:49.942Z,15.90
2018-03-18T21:58:18.223Z,11.50
2018-03-18T22:00:46.568Z,12.20
2018-03-18T22:03:14.868Z,12.82
2018-03-18T22:05:43.165Z,14.30
2018-03-18T22:08:11.473Z,8.60
2018-03-18T22:10:39.769Z,11.20
2018-03-18T22:13:08.876Z,13.98
2018-03-18T22:15:37.159Z,9.65
2018-03-18T22:18:05.484Z,8.73
2018-03-18T22:20:33.838Z,13.70
2018-03-18T22:23:02.275Z,9.73
2018-03-18T22:25:30.569Z,14.18
2018-03-18T22:27:58.931Z,12.37
2018-03-18T22:30:27.243Z,9.90
2018-03-18T22:32:55.508Z,8.68
2018-03-18T22:37:58.313Z,12.45
2018-03-18T22:40:26.711Z,10.88
2018-03-18T22:42:56.675Z,10.20
2018-03-18T22:45:25.048Z,14.02
2018-03-18T22:47:53.351Z,16.55
2018-03-18T22:50:22.136Z,14.73
2018-03-18T22:52:50.464Z,10.93
2018-03-18T22:57:53.645Z,13.10
2018-03-18T23:00:22.889Z,9.15
2018-03-18T23:02:51.236Z,11.43
2018-03-18T23:05:20.362Z,9.65
2018-03-18T23:07:48.663Z,10.55
2018-03-18T23:10:18.711Z,11.50
2018-03-18T23:12:47.286Z,13.27
2018-03-18T23:15:15.807Z,8.65
2018-03-18T23:17:44.197Z,12.07
2018-03-18T23:20:12.567Z,9.77
2018-03-18T23:22:41.175Z,13.68
2018-03-18T23:25:09.517Z,13.88
2018-03-18T23:27:38.825Z,9.20
2018-03-18T23:30:07.106Z,12.30
2018-03-18T23:32:35.374Z,8.70
2018-03-18T23:35:04.083Z,11.63
2018-03-18T23:37:33.700Z,13.73
2018-03-18T23:40:02.002Z,12.75
2018-03-18T23:42:31.073Z,13.02
2018-03-18T23:44:59.321Z,12.80
2018-03-18T23:47:27.994Z,11.27
2018-03-18T23:49:56.767Z,11.52
2018-03-18T23:52:25.445Z,10.30
2018-03-18T23:54:53.844Z,12.20
2018-03-18T23:57:22.456Z,13.32
2018-03-18T23:59:50.744Z,16.62
